sensor_id;sensor_type;location;lat;lon;timestamp;pressure;altitude;pressure_sealevel;temperature;humidity
61136;BME280;47021;51.340;12.432;2022-12-18T00:01:17;101728.91;;;-4.02;62.74
61136;BME280;47021;51.340;12.432;2022-12-18T00:03:43;101728.88;;;-4.14;62.75
61136;BME280;47021;51.340;12.432;2022-12-18T00:06:10;101726.31;;;-4.19;62.69
61136;BME280;47021;51.340;12.432;2022-12-18T00:08:37;101727.91;;;-4.47;63.57
61136;BME280;47021;51.340;12.432;2022-12-18T00:13:46;101730.44;;;-4.59;63.87
61136;BME280;47021;51.340;12.432;2022-12-18T00:16:12;101741.44;;;-4.66;63.62
61136;BME280;47021;51.340;12.432;2022-12-18T00:18:50;101738.88;;;-4.67;63.87
61136;BME280;47021;51.340;12.432;2022-12-18T00:21:22;101739.72;;;-4.67;62.90
61136;BME280;47021;51.340;12.432;2022-12-18T00:23:48;101739.66;;;-4.79;63.48
61136;BME280;47021;51.340;12.432;2022-12-18T00:26:17;101746.47;;;-4.76;62.95
61136;BME280;47021;51.340;12.432;2022-12-18T00:28:43;101749.91;;;-4.71;63.11
61136;BME280;47021;51.340;12.432;2022-12-18T00:31:12;101745.63;;;-4.74;62.53
61136;BME280;47021;51.340;12.432;2022-12-18T00:33:38;101729.53;;;-4.68;62.42
61136;BME280;47021;51.340;12.432;2022-12-18T00:36:05;101733.88;;;-4.48;62.22
61136;BME280;47021;51.340;12.432;2022-12-18T00:38:31;101728.66;;;-4.75;62.34
61136;BME280;47021;51.340;12.432;2022-12-18T00:40:58;101730.34;;;-4.78;63.14
61136;BME280;47021;51.340;12.432;2022-12-18T00:43:23;101727.84;;;-4.71;63.12
61136;BME280;47021;51.340;12.432;2022-12-18T00:45:48;101732.88;;;-4.81;63.39
61136;BME280;47021;51.340;12.432;2022-12-18T00:48:14;101731.28;;;-4.61;62.96
61136;BME280;47021;51.340;12.432;2022-12-18T00:50:40;101736.31;;;-4.69;62.91
61136;BME280;47021;51.340;12.432;2022-12-18T00:53:05;101747.41;;;-4.64;62.96
61136;BME280;47021;51.340;12.432;2022-12-18T00:55:31;101747.28;;;-4.79;63.61
61136;BME280;47021;51.340;12.432;2022-12-18T00:57:56;101746.63;;;-4.48;62.46
61136;BME280;47021;51.340;12.432;2022-12-18T01:03:33;101748.13;;;-4.83;64.35
61136;BME280;47021;51.340;12.432;2022-12-18T01:06:05;101744.09;;;-4.45;63.02
61136;BME280;47021;51.340;12.432;2022-12-18T01:11:15;101741.50;;;-4.52;62.75
61136;BME280;47021;51.340;12.432;2022-12-18T01:13:42;101743.25;;;-4.41;62.60
61136;BME280;47021;51.340;12.432;2022-12-18T01:16:11;101745.66;;;-4.69;63.30
61136;BME280;47021;51.340;12.432;2022-12-18T01:18:38;101746.66;;;-4.39;62.30
61136;BME280;47021;51.340;12.432;2022-12-18T01:21:07;101750.03;;;-4.46;62.29
61136;BME280;47021;51.340;12.432;2022-12-18T01:23:35;101750.03;;;-4.46;62.88
61136;BME280;47021;51.340;12.432;2022-12-18T01:26:07;101755.13;;;-4.46;62.81
61136;BME280;47021;51.340;12.432;2022-12-18T01:28:33;101755.16;;;-4.43;62.78
61136;BME280;47021;51.340;12.432;2022-12-18T01:31:08;101761.00;;;-4.63;63.10
61136;BME280;47021;51.340;12.432;2022-12-18T01:33:33;101767.66;;;-4.86;63.11
61136;BME280;47021;51.340;12.432;2022-12-18T01:38:43;101776.09;;;-4.92;63.32
61136;BME280;47021;51.340;12.432;2022-12-18T01:41:08;101778.66;;;-4.89;63.08
61136;BME280;47021;51.340;12.432;2022-12-18T01:43:42;101781.19;;;-4.93;63.08
61136;BME280;47021;51.340;12.432;2022-12-18T01:46:09;101776.25;;;-4.68;62.69
61136;BME280;47021;51.340;12.432;2022-12-18T01:48:35;101780.59;;;-4.52;62.23
61136;BME280;47021;51.340;12.432;2022-12-18T01:51:02;101778.88;;;-4.53;61.84
61136;BME280;47021;51.340;12.432;2022-12-18T01:53:28;101787.88;;;-5.06;63.04
61136;BME280;47021;51.340;12.432;2022-12-18T01:55:56;101792.13;;;-5.04;63.17
61136;BME280;47021;51.340;12.432;2022-12-18T01:58:30;101781.31;;;-4.72;62.47
61136;BME280;47021;51.340;12.432;2022-12-18T02:01:01;101778.88;;;-4.53;61.73
61136;BME280;47021;51.340;12.432;2022-12-18T02:03:27;101784.66;;;-4.81;61.54
61136;BME280;47021;51.340;12.432;2022-12-18T02:06:00;101788.66;;;-5.13;63.00
61136;BME280;47021;51.340;12.432;2022-12-18T02:08:39;101789.47;;;-5.20;63.31
61136;BME280;47021;51.340;12.432;2022-12-18T02:11:12;101789.44;;;-5.25;63.57
61136;BME280;47021;51.340;12.432;2022-12-18T02:18:37;101795.44;;;-5.18;63.08
61136;BME280;47021;51.340;12.432;2022-12-18T02:21:08;101793.75;;;-5.13;63.39
61136;BME280;47021;51.340;12.432;2022-12-18T02:28:42;101783.72;;;-4.92;62.85
61136;BME280;47021;51.340;12.432;2022-12-18T02:31:09;101788.78;;;-4.95;62.48
61136;BME280;47021;51.340;12.432;2022-12-18T02:33:42;101788.59;;;-5.25;63.38
61136;BME280;47021;51.340;12.432;2022-12-18T02:36:09;101781.69;;;-5.40;63.94
61136;BME280;47021;51.340;12.432;2022-12-18T02:41:13;101792.00;;;-5.20;63.21
61136;BME280;47021;51.340;12.432;2022-12-18T02:43:39;101789.66;;;-4.97;62.92
61136;BME280;47021;51.340;12.432;2022-12-18T02:51:55;101786.06;;;-5.25;63.25
61136;BME280;47021;51.340;12.432;2022-12-18T02:56:50;101782.72;;;-5.18;63.66
61136;BME280;47021;51.340;12.432;2022-12-18T02:59:38;101789.59;;;-5.04;63.37
61136;BME280;47021;51.340;12.432;2022-12-18T03:02:29;101793.97;;;-4.83;62.80
61136;BME280;47021;51.340;12.432;2022-12-18T03:05:10;101799.81;;;-5.02;62.88
61136;BME280;47021;51.340;12.432;2022-12-18T03:07:42;101791.31;;;-5.01;62.83
61136;BME280;47021;51.340;12.432;2022-12-18T03:10:12;101794.88;;;-4.79;62.34
61136;BME280;47021;51.340;12.432;2022-12-18T03:12:40;101788.75;;;-5.01;62.69
61136;BME280;47021;51.340;12.432;2022-12-18T03:17:35;101805.63;;;-5.17;62.92
61136;BME280;47021;51.340;12.432;2022-12-18T03:20:19;101809.13;;;-5.03;62.88
61136;BME280;47021;51.340;12.432;2022-12-18T03:22:49;101816.66;;;-5.13;62.83
61136;BME280;47021;51.340;12.432;2022-12-18T03:25:16;101812.28;;;-5.31;62.94
61136;BME280;47021;51.340;12.432;2022-12-18T03:27:46;101814.16;;;-5.09;63.07
61136;BME280;47021;51.340;12.432;2022-12-18T03:30:12;101816.78;;;-5.01;62.67
61136;BME280;47021;51.340;12.432;2022-12-18T03:32:42;101821.09;;;-4.91;62.69
61136;BME280;47021;51.340;12.432;2022-12-18T03:35:09;101825.06;;;-5.28;63.22
61136;BME280;47021;51.340;12.432;2022-12-18T03:37:36;101821.78;;;-5.10;63.42
61136;BME280;47021;51.340;12.432;2022-12-18T03:40:02;101821.88;;;-5.03;63.15
61136;BME280;47021;51.340;12.432;2022-12-18T03:42:45;101827.00;;;-4.96;62.89
61136;BME280;47021;51.340;12.432;2022-12-18T03:45:23;101827.75;;;-5.08;62.95
61136;BME280;47021;51.340;12.432;2022-12-18T03:50:27;101814.22;;;-5.01;62.98
61136;BME280;47021;51.340;12.432;2022-12-18T03:55:21;101815.84;;;-5.11;62.60
61136;BME280;47021;51.340;12.432;2022-12-18T03:57:48;101816.53;;;-5.34;63.38
61136;BME280;47021;51.340;12.432;2022-12-18T04:00:17;101817.38;;;-5.32;63.46
61136;BME280;47021;51.340;12.432;2022-12-18T04:02:51;101815.59;;;-5.41;63.50
61136;BME280;47021;51.340;12.432;2022-12-18T04:05:19;101818.38;;;-5.14;63.76
61136;BME280;47021;51.340;12.432;2022-12-18T04:07:47;101807.53;;;-4.85;62.77
61136;BME280;47021;51.340;12.432;2022-12-18T04:10:12;101809.31;;;-4.77;61.86
61136;BME280;47021;51.340;12.432;2022-12-18T04:12:39;101813.41;;;-5.00;62.62
61136;BME280;47021;51.340;12.432;2022-12-18T04:15:06;101822.84;;;-4.82;61.98
61136;BME280;47021;51.340;12.432;2022-12-18T04:17:31;101813.38;;;-5.05;62.36
61136;BME280;47021;51.340;12.432;2022-12-18T04:19:58;101815.09;;;-5.02;62.51
61136;BME280;47021;51.340;12.432;2022-12-18T04:22:31;101814.19;;;-5.07;62.60
61136;BME280;47021;51.340;12.432;2022-12-18T04:24:56;101810.81;;;-5.03;62.27
61136;BME280;47021;51.340;12.432;2022-12-18T04:27:35;101806.59;;;-5.03;62.60
61136;BME280;47021;51.340;12.432;2022-12-18T04:30:02;101801.31;;;-5.24;63.01
61136;BME280;47021;51.340;12.432;2022-12-18T04:32:27;101806.34;;;-5.33;63.36
61136;BME280;47021;51.340;12.432;2022-12-18T04:34:54;101808.69;;;-5.55;64.58
61136;BME280;47021;51.340;12.432;2022-12-18T04:37:26;101803.72;;;-5.43;63.93
61136;BME280;47021;51.340;12.432;2022-12-18T04:39:52;101802.69;;;-5.59;64.60
61136;BME280;47021;51.340;12.432;2022-12-18T04:42:19;101797.66;;;-5.56;63.80
61136;BME280;47021;51.340;12.432;2022-12-18T04:44:46;101807.19;;;-5.32;63.55
61136;BME280;47021;51.340;12.432;2022-12-18T04:47:12;101808.84;;;-5.39;63.48
61136;BME280;47021;51.340;12.432;2022-12-18T04:49:43;101808.81;;;-5.40;63.54
61136;BME280;47021;51.340;12.432;2022-12-18T04:52:10;101806.38;;;-5.30;63.66
61136;BME280;47021;51.340;12.432;2022-12-18T04:54:35;101805.41;;;-5.42;62.99
61136;BME280;47021;51.340;12.432;2022-12-18T04:57:00;101804.63;;;-5.34;62.82
61136;BME280;47021;51.340;12.432;2022-12-18T04:59:39;101808.25;;;-5.09;62.74
61136;BME280;47021;51.340;12.432;2022-12-18T05:02:04;101805.69;;;-5.06;62.06
61136;BME280;47021;51.340;12.432;2022-12-18T05:04:30;101802.16;;;-5.25;62.42
61136;BME280;47021;51.340;12.432;2022-12-18T05:07:01;101810.59;;;-5.30;62.51
61136;BME280;47021;51.340;12.432;2022-12-18T05:09:26;101806.44;;;-5.21;62.01
61136;BME280;47021;51.340;12.432;2022-12-18T05:11:53;101803.75;;;-5.37;62.44
61136;BME280;47021;51.340;12.432;2022-12-18T05:14:20;101803.78;;;-5.34;62.72
61136;BME280;47021;51.340;12.432;2022-12-18T05:16:45;101813.03;;;-5.41;62.36
61136;BME280;47021;51.340;12.432;2022-12-18T05:19:12;101812.28;;;-5.32;62.59
61136;BME280;47021;51.340;12.432;2022-12-18T05:21:37;101809.28;;;-5.82;63.71
61136;BME280;47021;51.340;12.432;2022-12-18T05:24:03;101805.97;;;-5.72;63.46
61136;BME280;47021;51.340;12.432;2022-12-18T05:26:30;101808.72;;;-5.49;62.97
61136;BME280;47021;51.340;12.432;2022-12-18T05:28:56;101808.75;;;-5.46;62.25
61136;BME280;47021;51.340;12.432;2022-12-18T05:31:27;101821.50;;;-5.45;62.69
61136;BME280;47021;51.340;12.432;2022-12-18T05:33:52;101819.03;;;-5.37;62.61
61136;BME280;47021;51.340;12.432;2022-12-18T05:36:19;101823.22;;;-5.44;62.27
61136;BME280;47021;51.340;12.432;2022-12-18T05:38:46;101815.72;;;-5.27;61.74
61136;BME280;47021;51.340;12.432;2022-12-18T05:41:18;101818.91;;;-5.49;62.48
61136;BME280;47021;51.340;12.432;2022-12-18T05:43:45;101829.75;;;-5.68;62.77
61136;BME280;47021;51.340;12.432;2022-12-18T05:46:12;101833.69;;;-5.99;63.86
61136;BME280;47021;51.340;12.432;2022-12-18T05:48:38;101838.94;;;-5.83;64.32
61136;BME280;47021;51.340;12.432;2022-12-18T05:51:05;101839.06;;;-5.67;63.02
61136;BME280;47021;51.340;12.432;2022-12-18T05:56:00;101853.91;;;-6.08;63.70
61136;BME280;47021;51.340;12.432;2022-12-18T05:58:27;101847.16;;;-6.05;64.01
61136;BME280;47021;51.340;12.432;2022-12-18T06:00:53;101847.25;;;-5.96;63.54
61136;BME280;47021;51.340;12.432;2022-12-18T06:03:18;101848.28;;;-5.77;63.03
61136;BME280;47021;51.340;12.432;2022-12-18T06:05:44;101844.16;;;-5.67;62.96
61136;BME280;47021;51.340;12.432;2022-12-18T06:08:11;101855.34;;;-5.55;62.67
61136;BME280;47021;51.340;12.432;2022-12-18T06:10:38;101862.78;;;-5.72;63.09
61136;BME280;47021;51.340;12.432;2022-12-18T06:13:04;101858.50;;;-5.74;63.26
61136;BME280;47021;51.340;12.432;2022-12-18T06:15:29;101866.34;;;-5.54;62.44
61136;BME280;47021;51.340;12.432;2022-12-18T06:17:56;101866.16;;;-5.73;62.18
61136;BME280;47021;51.340;12.432;2022-12-18T06:20:22;101850.25;;;-5.53;62.11
61136;BME280;47021;51.340;12.432;2022-12-18T06:22:48;101859.69;;;-5.43;61.55
61136;BME280;47021;51.340;12.432;2022-12-18T06:25:13;101869.88;;;-5.40;61.19
61136;BME280;47021;51.340;12.432;2022-12-18T06:27:39;101871.56;;;-5.41;61.45
61136;BME280;47021;51.340;12.432;2022-12-18T06:30:10;101882.28;;;-5.71;61.77
61136;BME280;47021;51.340;12.432;2022-12-18T06:32:35;101871.38;;;-5.62;61.79
61136;BME280;47021;51.340;12.432;2022-12-18T06:35:07;101855.25;;;-5.62;61.45
61136;BME280;47021;51.340;12.432;2022-12-18T06:37:33;101872.13;;;-5.67;61.75
61136;BME280;47021;51.340;12.432;2022-12-18T06:39:59;101877.91;;;-5.85;62.67
61136;BME280;47021;51.340;12.432;2022-12-18T06:42:25;101874.69;;;-5.67;62.34
61136;BME280;47021;51.340;12.432;2022-12-18T06:44:53;101871.31;;;-5.63;61.88
61136;BME280;47021;51.340;12.432;2022-12-18T06:47:19;101865.38;;;-5.65;61.54
61136;BME280;47021;51.340;12.432;2022-12-18T06:49:44;101871.22;;;-5.73;61.65
61136;BME280;47021;51.340;12.432;2022-12-18T06:52:14;101870.41;;;-5.72;61.10
61136;BME280;47021;51.340;12.432;2022-12-18T06:54:39;101871.38;;;-5.59;61.47
61136;BME280;47021;51.340;12.432;2022-12-18T06:57:07;101874.53;;;-5.80;61.63
61136;BME280;47021;51.340;12.432;2022-12-18T06:59:38;101882.16;;;-5.80;62.37
61136;BME280;47021;51.340;12.432;2022-12-18T07:02:03;101880.41;;;-5.90;61.76
61136;BME280;47021;51.340;12.432;2022-12-18T07:04:29;101880.47;;;-5.81;61.93
61136;BME280;47021;51.340;12.432;2022-12-18T07:07:07;101873.72;;;-5.80;62.53
61136;BME280;47021;51.340;12.432;2022-12-18T07:09:34;101876.38;;;-5.68;61.97
61136;BME280;47021;51.340;12.432;2022-12-18T07:12:05;101877.72;;;-6.02;62.48
61136;BME280;47021;51.340;12.432;2022-12-18T07:14:38;101876.47;;;-5.60;61.71
61136;BME280;47021;51.340;12.432;2022-12-18T07:17:04;101880.31;;;-5.96;62.57
61136;BME280;47021;51.340;12.432;2022-12-18T07:19:35;101883.94;;;-5.76;62.27
61136;BME280;47021;51.340;12.432;2022-12-18T07:22:04;101881.44;;;-5.69;62.00
61136;BME280;47021;51.340;12.432;2022-12-18T07:24:29;101888.25;;;-5.68;62.28
61136;BME280;47021;51.340;12.432;2022-12-18T07:27:00;101892.44;;;-5.72;62.46
61136;BME280;47021;51.340;12.432;2022-12-18T07:29:25;101885.88;;;-5.52;61.50
61136;BME280;47021;51.340;12.432;2022-12-18T07:31:58;101887.53;;;-5.57;61.84
61136;BME280;47021;51.340;12.432;2022-12-18T07:34:38;101885.78;;;-5.62;61.83
61136;BME280;47021;51.340;12.432;2022-12-18T07:37:10;101893.59;;;-5.46;61.33
61136;BME280;47021;51.340;12.432;2022-12-18T07:39:42;101891.41;;;-5.91;62.57
61136;BME280;47021;51.340;12.432;2022-12-18T07:44:51;101900.94;;;-5.70;62.17
61136;BME280;47021;51.340;12.432;2022-12-18T07:47:16;101904.16;;;-5.86;62.52
61136;BME280;47021;51.340;12.432;2022-12-18T07:49:42;101906.03;;;-5.70;62.19
61136;BME280;47021;51.340;12.432;2022-12-18T07:52:07;101912.78;;;-5.71;61.96
61136;BME280;47021;51.340;12.432;2022-12-18T07:57:04;101908.75;;;-5.55;62.04
61136;BME280;47021;51.340;12.432;2022-12-18T07:59:38;101922.44;;;-5.42;61.82
61136;BME280;47021;51.340;12.432;2022-12-18T08:02:04;101932.34;;;-5.66;61.84
61136;BME280;47021;51.340;12.432;2022-12-18T08:04:33;101934.03;;;-5.68;62.03
61136;BME280;47021;51.340;12.432;2022-12-18T08:07:04;101932.72;;;-5.33;61.92
61136;BME280;47021;51.340;12.432;2022-12-18T08:09:39;101925.84;;;-5.43;62.21
61136;BME280;47021;51.340;12.432;2022-12-18T08:14:50;101933.22;;;-5.64;63.09
61136;BME280;47021;51.340;12.432;2022-12-18T08:17:16;101935.66;;;-5.74;63.07
61136;BME280;47021;51.340;12.432;2022-12-18T08:19:50;101924.78;;;-5.62;62.93
61136;BME280;47021;51.340;12.432;2022-12-18T08:25:00;101930.88;;;-5.46;66.11
61136;BME280;47021;51.340;12.432;2022-12-18T08:27:26;101937.22;;;-5.10;63.58
61136;BME280;47021;51.340;12.432;2022-12-18T08:29:53;101945.19;;;-4.73;62.16
61136;BME280;47021;51.340;12.432;2022-12-18T08:32:18;101934.91;;;-4.81;61.87
61136;BME280;47021;51.340;12.432;2022-12-18T08:34:44;101946.59;;;-5.04;61.85
61136;BME280;47021;51.340;12.432;2022-12-18T08:40:00;101942.63;;;-4.72;62.04
61136;BME280;47021;51.340;12.432;2022-12-18T08:42:39;101948.88;;;-4.37;60.91
61136;BME280;47021;51.340;12.432;2022-12-18T08:47:57;101947.75;;;-4.70;62.34
61136;BME280;47021;51.340;12.432;2022-12-18T08:53:14;101950.44;;;-4.51;61.61
61136;BME280;47021;51.340;12.432;2022-12-18T08:55:39;101954.94;;;-4.18;61.35
61136;BME280;47021;51.340;12.432;2022-12-18T09:03:51;101960.25;;;-3.77;60.41
61136;BME280;47021;51.340;12.432;2022-12-18T09:06:24;101955.63;;;-4.45;62.02
61136;BME280;47021;51.340;12.432;2022-12-18T09:08:56;101964.53;;;-3.76;60.89
61136;BME280;47021;51.340;12.432;2022-12-18T09:11:28;101963.72;;;-3.62;60.36
61136;BME280;47021;51.340;12.432;2022-12-18T09:13:54;101962.00;;;-3.69;60.51
61136;BME280;47021;51.340;12.432;2022-12-18T09:16:21;101955.09;;;-3.91;60.54
61136;BME280;47021;51.340;12.432;2022-12-18T09:18:46;101957.72;;;-3.77;61.01
61136;BME280;47021;51.340;12.432;2022-12-18T09:21:15;101958.56;;;-3.75;61.63
61136;BME280;47021;51.340;12.432;2022-12-18T09:23:41;101953.50;;;-3.71;61.38
61136;BME280;47021;51.340;12.432;2022-12-18T09:26:06;101954.34;;;-3.69;61.57
61136;BME280;47021;51.340;12.432;2022-12-18T09:28:38;101954.44;;;-3.41;60.91
61136;BME280;47021;51.340;12.432;2022-12-18T09:31:04;101944.31;;;-3.22;59.96
61136;BME280;47021;51.340;12.432;2022-12-18T09:33:37;101940.09;;;-2.97;60.53
61136;BME280;47021;51.340;12.432;2022-12-18T09:36:15;101935.84;;;-2.98;60.80
61136;BME280;47021;51.340;12.432;2022-12-18T09:38:42;101928.16;;;-3.04;60.52
61136;BME280;47021;51.340;12.432;2022-12-18T09:43:57;101923.91;;;-2.86;60.76
61136;BME280;47021;51.340;12.432;2022-12-18T09:46:27;101923.06;;;-2.80;60.70
61136;BME280;47021;51.340;12.432;2022-12-18T09:48:57;101911.16;;;-2.82;60.73
61136;BME280;47021;51.340;12.432;2022-12-18T09:51:37;101906.81;;;-3.38;62.29
61136;BME280;47021;51.340;12.432;2022-12-18T09:54:07;101902.56;;;-3.27;62.54
61136;BME280;47021;51.340;12.432;2022-12-18T09:56:38;101892.41;;;-2.80;61.43
61136;BME280;47021;51.340;12.432;2022-12-18T09:59:05;101889.84;;;-2.84;61.64
61136;BME280;47021;51.340;12.432;2022-12-18T10:01:31;101888.16;;;-2.82;61.12
61136;BME280;47021;51.340;12.432;2022-12-18T10:03:56;101903.50;;;-2.82;61.82
61136;BME280;47021;51.340;12.432;2022-12-18T10:06:31;101890.69;;;-2.58;61.34
61136;BME280;47021;51.340;12.432;2022-12-18T10:11:34;101883.84;;;-2.56;61.34
61136;BME280;47021;51.340;12.432;2022-12-18T10:22:02;101877.91;;;-2.52;61.50
61136;BME280;47021;51.340;12.432;2022-12-18T10:24:42;101874.50;;;-2.48;61.54
61136;BME280;47021;51.340;12.432;2022-12-18T10:27:15;101872.78;;;-2.52;61.57
61136;BME280;47021;51.340;12.432;2022-12-18T10:29:48;101871.84;;;-2.17;60.92
61136;BME280;47021;51.340;12.432;2022-12-18T10:32:16;101860.84;;;-2.56;62.11
61136;BME280;47021;51.340;12.432;2022-12-18T10:34:44;101860.00;;;-2.43;61.30
61136;BME280;47021;51.340;12.432;2022-12-18T10:37:11;101861.69;;;-2.51;62.41
61136;BME280;47021;51.340;12.432;2022-12-18T10:39:47;101861.63;;;-2.21;62.13
61136;BME280;47021;51.340;12.432;2022-12-18T10:42:29;101849.66;;;-2.07;61.10
61136;BME280;47021;51.340;12.432;2022-12-18T10:45:08;101857.06;;;-1.53;60.28
61136;BME280;47021;51.340;12.432;2022-12-18T10:47:43;101859.69;;;-1.69;60.09
61136;BME280;47021;51.340;12.432;2022-12-18T10:50:18;101858.69;;;-1.41;59.99
61136;BME280;47021;51.340;12.432;2022-12-18T10:52:44;101854.34;;;-1.28;59.46
61136;BME280;47021;51.340;12.432;2022-12-18T10:57:47;101842.44;;;-1.38;60.14
61136;BME280;47021;51.340;12.432;2022-12-18T11:00:26;101841.41;;;-1.13;60.19
61136;BME280;47021;51.340;12.432;2022-12-18T11:02:53;101844.75;;;-1.05;60.08
61136;BME280;47021;51.340;12.432;2022-12-18T11:05:29;101849.13;;;-1.18;60.04
61136;BME280;47021;51.340;12.432;2022-12-18T11:08:01;101844.81;;;-1.08;59.64
61136;BME280;47021;51.340;12.432;2022-12-18T11:10:36;101843.72;;;-0.82;59.69
61136;BME280;47021;51.340;12.432;2022-12-18T11:13:11;101851.66;;;-1.10;59.34
61136;BME280;47021;51.340;12.432;2022-12-18T11:15:40;101852.28;;;-0.83;59.69
61136;BME280;47021;51.340;12.432;2022-12-18T11:18:29;101845.34;;;-0.75;59.35
61136;BME280;47021;51.340;12.432;2022-12-18T11:20:54;101846.38;;;-0.92;59.34
61136;BME280;47021;51.340;12.432;2022-12-18T11:23:21;101848.09;;;-0.94;59.65
61136;BME280;47021;51.340;12.432;2022-12-18T11:25:54;101844.81;;;-1.11;59.67
61136;BME280;47021;51.340;12.432;2022-12-18T11:31:39;101855.84;;;-1.02;60.00
61136;BME280;47021;51.340;12.432;2022-12-18T11:34:31;101855.16;;;-1.22;60.78
61136;BME280;47021;51.340;12.432;2022-12-18T11:36:38;101855.88;;;-1.06;60.12
61136;BME280;47021;51.340;12.432;2022-12-18T11:40:06;101861.56;;;-0.73;59.65
61136;BME280;47021;51.340;12.432;2022-12-18T11:42:18;101858.53;;;-1.21;60.56
61136;BME280;47021;51.340;12.432;2022-12-18T11:44:59;101868.31;;;-0.64;60.25
61136;BME280;47021;51.340;12.432;2022-12-18T11:47:42;101869.22;;;-0.68;59.47
61136;BME280;47021;51.340;12.432;2022-12-18T11:50:18;101867.13;;;-0.28;58.97
61136;BME280;47021;51.340;12.432;2022-12-18T12:00:49;101841.69;;;0.25;58.04
61136;BME280;47021;51.340;12.432;2022-12-18T12:44:07;101796.66;;;0.58;57.29
61136;BME280;47021;51.340;12.432;2022-12-18T12:46:36;101802.81;;;0.48;57.37
61136;BME280;47021;51.340;12.432;2022-12-18T12:49:04;101814.22;;;0.29;58.06
61136;BME280;47021;51.340;12.432;2022-12-18T12:51:38;101811.25;;;-0.07;59.67
61136;BME280;47021;51.340;12.432;2022-12-18T12:54:08;101811.34;;;0.48;58.88
61136;BME280;47021;51.340;12.432;2022-12-18T13:02:06;101809.84;;;0.90;57.10
61136;BME280;47021;51.340;12.432;2022-12-18T13:04:40;101794.72;;;0.72;57.65
61136;BME280;47021;51.340;12.432;2022-12-18T13:12:35;101779.88;;;0.88;57.19
61136;BME280;47021;51.340;12.432;2022-12-18T13:20:45;101766.03;;;1.43;56.76
61136;BME280;47021;51.340;12.432;2022-12-18T13:25:52;101758.81;;;1.16;57.25
61136;BME280;47021;51.340;12.432;2022-12-18T13:38:37;101767.22;;;0.77;58.50
61136;BME280;47021;51.340;12.432;2022-12-18T13:43:54;101773.00;;;0.38;58.26
61136;BME280;47021;51.340;12.432;2022-12-18T13:51:41;101760.53;;;0.67;58.46
61136;BME280;47021;51.340;12.432;2022-12-18T13:57:22;101758.00;;;0.65;58.47
61136;BME280;47021;51.340;12.432;2022-12-18T14:02:33;101744.72;;;-0.22;60.07
61136;BME280;47021;51.340;12.432;2022-12-18T14:05:04;101724.44;;;-0.40;60.78
61136;BME280;47021;51.340;12.432;2022-12-18T14:07:29;101738.91;;;-0.36;60.51
61136;BME280;47021;51.340;12.432;2022-12-18T14:09:55;101740.28;;;-0.11;59.95
61136;BME280;47021;51.340;12.432;2022-12-18T14:12:22;101743.31;;;0.17;59.15
61136;BME280;47021;51.340;12.432;2022-12-18T14:14:50;101737.94;;;0.34;58.72
61136;BME280;47021;51.340;12.432;2022-12-18T14:17:16;101747.00;;;0.56;59.48
61136;BME280;47021;51.340;12.432;2022-12-18T14:19:47;101742.81;;;0.52;58.68
61136;BME280;47021;51.340;12.432;2022-12-18T14:22:30;101741.56;;;0.21;58.82
61136;BME280;47021;51.340;12.432;2022-12-18T14:25:10;101743.56;;;0.00;58.51
61136;BME280;47021;51.340;12.432;2022-12-18T14:30:27;101734.34;;;-0.13;59.16
61136;BME280;47021;51.340;12.432;2022-12-18T14:33:11;101733.59;;;-0.21;59.05
61136;BME280;47021;51.340;12.432;2022-12-18T14:35:40;101737.34;;;-0.47;59.27
61136;BME280;47021;51.340;12.432;2022-12-18T14:40:56;101732.50;;;-0.03;58.48
61136;BME280;47021;51.340;12.432;2022-12-18T14:43:35;101736.13;;;-0.18;58.89
61136;BME280;47021;51.340;12.432;2022-12-18T14:46:02;101737.84;;;-0.20;59.26
61136;BME280;47021;51.340;12.432;2022-12-18T14:48:40;101734.47;;;-0.22;59.12
61136;BME280;47021;51.340;12.432;2022-12-18T14:59:03;101719.34;;;-0.43;58.83
61136;BME280;47021;51.340;12.432;2022-12-18T15:06:42;101706.47;;;-0.40;58.93
61136;BME280;47021;51.340;12.432;2022-12-18T15:09:21;101709.97;;;-0.44;58.59
61136;BME280;47021;51.340;12.432;2022-12-18T15:12:00;101722.28;;;-0.75;59.49
61136;BME280;47021;51.340;12.432;2022-12-18T15:14:43;101719.34;;;-0.46;58.38
61136;BME280;47021;51.340;12.432;2022-12-18T15:20:02;101724.75;;;-0.65;58.45
61136;BME280;47021;51.340;12.432;2022-12-18T15:22:35;101729.97;;;-0.75;58.88
61136;BME280;47021;51.340;12.432;2022-12-18T15:25:19;101743.56;;;-0.68;59.13
61136;BME280;47021;51.340;12.432;2022-12-18T15:27:49;101730.00;;;-0.78;59.19
61136;BME280;47021;51.340;12.432;2022-12-18T15:32:41;101735.06;;;-0.73;58.48
61136;BME280;47021;51.340;12.432;2022-12-18T15:35:15;101735.19;;;-0.81;59.08
61136;BME280;47021;51.340;12.432;2022-12-18T15:37:48;101728.44;;;-0.91;59.42
61136;BME280;47021;51.340;12.432;2022-12-18T15:40:15;101730.81;;;-0.73;59.27
61136;BME280;47021;51.340;12.432;2022-12-18T15:42:51;101723.72;;;-0.51;58.58
61136;BME280;47021;51.340;12.432;2022-12-18T15:45:24;101735.88;;;-0.66;58.65
61136;BME280;47021;51.340;12.432;2022-12-18T15:47:56;101719.81;;;-0.84;59.43
61136;BME280;47021;51.340;12.432;2022-12-18T15:50:21;101718.31;;;-1.03;59.25
61136;BME280;47021;51.340;12.432;2022-12-18T15:52:47;101722.66;;;-1.12;59.96
61136;BME280;47021;51.340;12.432;2022-12-18T15:55:15;101721.75;;;-1.05;60.30
61136;BME280;47021;51.340;12.432;2022-12-18T15:57:48;101717.53;;;-1.11;60.05
61136;BME280;47021;51.340;12.432;2022-12-18T16:02:44;101712.31;;;-1.02;59.89
61136;BME280;47021;51.340;12.432;2022-12-18T16:05:13;101714.97;;;-1.12;59.87
61136;BME280;47021;51.340;12.432;2022-12-18T16:07:46;101709.75;;;-1.00;59.13
61136;BME280;47021;51.340;12.432;2022-12-18T16:12:56;101685.56;;;-0.77;58.53
61136;BME280;47021;51.340;12.432;2022-12-18T16:15:22;101696.13;;;-1.05;58.93
61136;BME280;47021;51.340;12.432;2022-12-18T16:17:47;101688.28;;;-0.90;58.91
61136;BME280;47021;51.340;12.432;2022-12-18T16:20:16;101697.91;;;-1.12;59.35